createdAt,value
2023-11-15T00:00:10.364Z,5.27
2023-11-15T00:02:39.705Z,7.10
2023-11-15T00:05:10.377Z,6.63
2023-11-15T00:07:38.812Z,6.40
2023-11-15T00:10:08.209Z,5.80
2023-11-15T00:12:36.666Z,5.90
2023-11-15T00:15:05.778Z,6.40
2023-11-15T00:17:34.288Z,4.93
2023-11-15T00:20:05.106Z,5.70
2023-11-15T00:22:34.939Z,6.47
2023-11-15T00:25:03.260Z,5.70
2023-11-15T00:27:32.744Z,5.20
2023-11-15T00:30:02.074Z,5.50
2023-11-15T00:32:30.781Z,6.60
2023-11-15T00:34:59.140Z,5.03
2023-11-15T00:37:28.035Z,5.10
2023-11-15T00:39:59.511Z,5.30
2023-11-15T00:42:27.948Z,6.30
2023-11-15T00:44:56.418Z,5.70
2023-11-15T00:47:24.907Z,5.63
2023-11-15T00:49:53.320Z,6.03
2023-11-15T00:52:21.652Z,5.90
2023-11-15T00:54:49.915Z,4.50
2023-11-15T00:57:19.682Z,5.13
2023-11-15T00:59:54.273Z,4.30
2023-11-15T01:02:22.954Z,5.23
2023-11-15T01:04:52.214Z,5.50
2023-11-15T01:07:20.812Z,4.63
2023-11-15T01:09:49.488Z,4.93
2023-11-15T01:12:19.659Z,5.70
2023-11-15T01:14:48.202Z,4.10
2023-11-15T01:17:16.682Z,5.20
2023-11-15T01:19:46.180Z,4.53
2023-11-15T01:22:14.672Z,4.20
2023-11-15T01:24:43.197Z,5.30
2023-11-15T01:27:12.432Z,5.27
2023-11-15T01:29:42.096Z,4.90
2023-11-15T01:32:10.491Z,4.17
2023-11-15T01:34:38.943Z,5.60
2023-11-15T01:37:07.336Z,4.70
2023-11-15T01:39:35.713Z,4.83
2023-11-15T01:42:04.572Z,4.87
2023-11-15T01:44:35.310Z,4.70
2023-11-15T01:47:05.988Z,4.60
2023-11-15T01:49:34.553Z,4.77
2023-11-15T01:52:02.939Z,4.40
2023-11-15T01:54:32.002Z,4.50
2023-11-15T01:57:00.470Z,6.27
2023-11-15T01:59:29.290Z,4.50
2023-11-15T02:01:57.653Z,4.13
2023-11-15T02:04:27.766Z,4.07
2023-11-15T02:06:57.026Z,4.50
2023-11-15T02:09:26.094Z,5.50
2023-11-15T02:11:54.902Z,4.90
2023-11-15T02:14:23.565Z,4.40
2023-11-15T02:16:53.229Z,5.03
2023-11-15T02:19:21.882Z,4.13
2023-11-15T02:21:53.365Z,4.50
2023-11-15T02:24:23.195Z,5.80
2023-11-15T02:26:51.824Z,5.23
2023-11-15T02:29:20.231Z,4.97
2023-11-15T02:31:48.594Z,4.90
2023-11-15T02:34:17.043Z,4.60
2023-11-15T02:36:45.358Z,5.93
2023-11-15T02:39:14.125Z,4.40
2023-11-15T02:41:44.044Z,4.07
2023-11-15T02:44:12.427Z,4.60
2023-11-15T02:46:40.873Z,5.50
2023-11-15T02:49:09.323Z,3.90
2023-11-15T02:51:37.825Z,4.33
2023-11-15T02:54:06.456Z,4.00
2023-11-15T02:56:34.798Z,4.17
2023-11-15T02:59:04.621Z,4.00
2023-11-15T03:01:33.181Z,3.73
2023-11-15T03:04:01.595Z,4.90
2023-11-15T03:06:31.959Z,4.00
2023-11-15T03:09:00.329Z,4.57
2023-11-15T03:11:28.865Z,5.30
2023-11-15T03:13:57.991Z,4.50
2023-11-15T03:16:27.883Z,4.53
2023-11-15T03:18:56.375Z,3.80
2023-11-15T03:21:24.798Z,4.50
2023-11-15T03:23:53.290Z,5.60
2023-11-15T03:26:21.793Z,4.00
2023-11-15T03:28:50.264Z,4.30
2023-11-15T03:31:18.750Z,5.50
2023-11-15T03:33:49.419Z,3.93
2023-11-15T03:36:18.002Z,4.43
2023-11-15T03:38:46.522Z,4.67
2023-11-15T03:41:15.156Z,5.40
2023-11-15T03:43:43.759Z,4.43
2023-11-15T03:46:12.309Z,4.90
2023-11-15T03:48:40.911Z,4.90
2023-11-15T03:51:10.714Z,4.10
2023-11-15T03:53:39.792Z,4.77
2023-11-15T03:56:11.173Z,5.10
2023-11-15T03:58:39.653Z,5.53
2023-11-15T04:01:09.228Z,4.10
2023-11-15T04:03:37.874Z,5.10
2023-11-15T04:06:09.111Z,4.50
2023-11-15T04:08:38.980Z,4.30
2023-11-15T04:11:07.656Z,4.70
2023-11-15T04:13:37.374Z,5.47
2023-11-15T04:16:07.325Z,4.73
2023-11-15T04:18:36.928Z,5.20
2023-11-15T04:21:06.271Z,5.40
2023-11-15T04:23:34.725Z,4.93
2023-11-15T04:26:04.976Z,5.10
2023-11-15T04:28:34.653Z,5.03
2023-11-15T04:31:03.991Z,4.47
2023-11-15T04:33:32.483Z,4.50
2023-11-15T04:36:01.069Z,4.67
2023-11-15T04:38:29.562Z,4.37
2023-11-15T04:40:58.073Z,5.60
2023-11-15T04:43:27.843Z,4.03
2023-11-15T04:45:56.300Z,4.73
2023-11-15T04:48:24.778Z,3.73
2023-11-15T04:50:53.202Z,6.70
2023-11-15T04:53:21.597Z,4.80
2023-11-15T04:55:49.962Z,5.07
2023-11-15T04:58:18.272Z,4.43
2023-11-15T05:00:48.071Z,4.57
2023-11-15T05:03:16.526Z,5.27
2023-11-15T05:05:47.258Z,4.57
2023-11-15T05:08:15.781Z,5.10
2023-11-15T05:10:44.158Z,5.10
2023-11-15T05:13:12.704Z,4.40
2023-11-15T05:15:41.777Z,4.97
2023-11-15T05:18:11.615Z,3.60
2023-11-15T05:20:40.010Z,4.50
2023-11-15T05:23:08.446Z,5.03
2023-11-15T05:25:37.228Z,4.37
2023-11-15T05:28:06.770Z,4.17
2023-11-15T05:30:35.260Z,5.00
2023-11-15T05:33:03.752Z,4.13
2023-11-15T05:35:33.576Z,4.93
2023-11-15T05:38:02.126Z,4.50
2023-11-15T05:40:30.600Z,5.47
2023-11-15T05:42:58.963Z,5.27
2023-11-15T05:45:27.487Z,4.63
2023-11-15T05:47:55.933Z,4.60
2023-11-15T05:50:24.354Z,4.93
2023-11-15T05:52:54.677Z,5.27
2023-11-15T05:55:23.097Z,5.17
2023-11-15T05:57:51.542Z,5.40
2023-11-15T06:00:21.506Z,4.30
2023-11-15T06:02:51.208Z,4.70
2023-11-15T06:05:21.370Z,4.93
2023-11-15T06:07:49.760Z,4.87
2023-11-15T06:10:19.856Z,4.93
2023-11-15T06:12:48.296Z,4.27
2023-11-15T06:15:16.938Z,5.37
2023-11-15T06:17:45.505Z,4.97
2023-11-15T06:20:14.933Z,4.50
2023-11-15T06:22:43.237Z,5.30
2023-11-15T06:25:11.842Z,5.33
2023-11-15T06:27:41.533Z,4.90
2023-11-15T06:30:11.182Z,5.10
2023-11-15T06:32:40.720Z,4.67
2023-11-15T06:35:10.532Z,5.40
2023-11-15T06:37:39.271Z,5.07
2023-11-15T06:40:10.808Z,4.70
2023-11-15T06:42:39.113Z,4.23
2023-11-15T06:45:10.887Z,4.90
2023-11-15T06:47:39.414Z,4.03
2023-11-15T06:50:09.503Z,4.60
2023-11-15T06:52:40.075Z,4.50
2023-11-15T06:55:12.166Z,5.13
2023-11-15T06:57:42.866Z,4.93
2023-11-15T07:00:15.009Z,4.50
2023-11-15T07:02:43.639Z,4.43
2023-11-15T07:05:12.721Z,4.60
2023-11-15T07:07:41.453Z,5.33
2023-11-15T07:10:11.313Z,4.30
2023-11-15T07:12:41.633Z,5.00
2023-11-15T07:15:15.340Z,5.13
2023-11-15T07:17:44.052Z,5.40
2023-11-15T07:20:14.685Z,5.07
2023-11-15T07:22:43.029Z,5.00
2023-11-15T07:25:14.069Z,4.73
2023-11-15T07:27:42.478Z,4.93
2023-11-15T07:30:15.455Z,5.80
2023-11-15T07:32:44.139Z,5.83
2023-11-15T07:35:12.501Z,5.30
2023-11-15T07:37:41.930Z,5.70
2023-11-15T07:40:14.362Z,5.57
2023-11-15T07:42:43.028Z,6.17
2023-11-15T07:45:13.284Z,5.80
2023-11-15T07:47:45.053Z,6.40
2023-11-15T07:50:16.377Z,6.87
2023-11-15T07:52:46.420Z,6.40
2023-11-15T07:55:16.523Z,7.40
2023-11-15T07:57:45.078Z,8.27
2023-11-15T08:00:16.951Z,7.17
2023-11-15T08:02:45.960Z,8.00
2023-11-15T08:05:14.618Z,5.80
2023-11-15T08:07:43.079Z,5.73
2023-11-15T08:10:14.495Z,5.10
2023-11-15T08:12:45.519Z,4.87
2023-11-15T08:15:15.770Z,5.20
2023-11-15T08:17:44.775Z,4.80
2023-11-15T08:20:13.823Z,5.50
2023-11-15T08:22:43.157Z,4.80
2023-11-15T08:25:12.531Z,5.60
2023-11-15T08:27:41.831Z,5.17
2023-11-15T08:30:14.136Z,6.20
2023-11-15T08:32:44.250Z,4.83
2023-11-15T08:35:15.741Z,4.57
2023-11-15T08:37:44.100Z,5.07
2023-11-15T08:40:23.196Z,6.37
2023-11-15T08:42:58.121Z,4.40
2023-11-15T08:45:26.825Z,6.43
2023-11-15T08:47:58.956Z,6.33
2023-11-15T08:50:28.630Z,5.50
2023-11-15T08:52:57.667Z,5.93
2023-11-15T08:55:26.142Z,5.80
2023-11-15T08:57:54.710Z,5.10
2023-11-15T09:00:25.588Z,4.70
2023-11-15T09:02:54.131Z,4.03
2023-11-15T09:05:25.069Z,4.50
2023-11-15T09:07:54.603Z,4.83
2023-11-15T09:10:24.384Z,5.03
2023-11-15T09:12:53.894Z,5.50
2023-11-15T09:15:25.587Z,5.50
2023-11-15T09:17:54.224Z,5.03
2023-11-15T09:20:28.850Z,5.77
2023-11-15T09:22:59.384Z,5.67
2023-11-15T09:25:28.308Z,5.07
2023-11-15T09:28:03.921Z,4.70
2023-11-15T09:30:33.043Z,5.90
2023-11-15T09:33:04.741Z,5.13
2023-11-15T09:38:06.321Z,4.50
2023-11-15T09:40:34.600Z,3.70
2023-11-15T09:43:03.746Z,3.67
2023-11-15T09:45:34.599Z,3.87
2023-11-15T09:48:05.645Z,3.90
2023-11-15T09:50:37.521Z,3.53
2023-11-15T09:53:07.481Z,3.60
2023-11-15T09:55:36.172Z,4.23
2023-11-15T09:58:05.201Z,3.80
2023-11-15T10:00:33.850Z,3.97
2023-11-15T10:03:02.882Z,3.97
2023-11-15T10:05:33.422Z,4.90
2023-11-15T10:08:16.584Z,3.93
2023-11-15T10:10:48.919Z,3.97
2023-11-15T10:13:22.293Z,4.20
2023-11-15T10:15:52.150Z,4.30
2023-11-15T10:18:33.390Z,3.77
2023-11-15T10:21:13.194Z,3.50
2023-11-15T10:23:43.503Z,3.30
2023-11-15T10:26:12.761Z,4.10
2023-11-15T10:28:41.680Z,4.27
2023-11-15T10:31:14.807Z,4.33
2023-11-15T10:33:47.213Z,3.67
2023-11-15T10:36:18.892Z,4.10
2023-11-15T10:38:51.597Z,3.90
2023-11-15T10:41:22.454Z,3.27
2023-11-15T10:43:52.498Z,3.60
2023-11-15T10:46:27.986Z,3.00
2023-11-15T10:48:58.479Z,3.70
2023-11-15T10:51:31.146Z,3.30
2023-11-15T10:54:02.410Z,3.23
2023-11-15T10:56:34.285Z,4.00
2023-11-15T10:59:05.515Z,3.90
2023-11-15T11:01:35.485Z,3.30
2023-11-15T11:04:11.792Z,3.30
2023-11-15T11:06:48.967Z,4.13
2023-11-15T11:09:24.829Z,3.40
2023-11-15T11:12:01.152Z,2.83
2023-11-15T11:14:29.674Z,3.53
2023-11-15T11:16:58.531Z,3.00
2023-11-15T11:19:28.025Z,2.73
2023-11-15T11:22:09.005Z,3.10
2023-11-15T11:24:43.889Z,2.70
2023-11-15T11:27:32.746Z,3.07
2023-11-15T11:30:22.144Z,3.10
2023-11-15T11:32:51.938Z,2.80
2023-11-15T11:35:37.589Z,2.80
2023-11-15T11:38:06.209Z,2.17
2023-11-15T11:40:40.647Z,2.20
2023-11-15T11:43:23.212Z,1.70
2023-11-15T11:45:55.227Z,2.60
2023-11-15T11:48:26.537Z,2.27
2023-11-15T11:51:01.829Z,2.20
2023-11-15T11:53:30.196Z,2.37
2023-11-15T11:55:59.871Z,2.40
2023-11-15T11:58:30.815Z,2.80
2023-11-15T12:01:04.730Z,2.70
2023-11-15T12:03:36.933Z,2.23
2023-11-15T12:06:12.378Z,2.40
2023-11-15T12:08:48.726Z,2.50
2023-11-15T12:11:23.624Z,3.03
2023-11-15T12:13:54.022Z,3.03
2023-11-15T12:16:25.068Z,2.70
2023-11-15T12:19:07.221Z,3.70
2023-11-15T12:21:38.886Z,2.97
2023-11-15T12:24:11.406Z,3.97
2023-11-15T12:26:47.676Z,2.80
2023-11-15T12:29:24.516Z,2.70
2023-11-15T12:31:55.887Z,2.40
2023-11-15T12:34:25.662Z,2.27
2023-11-15T12:36:54.760Z,3.50
2023-11-15T12:39:24.007Z,2.00
2023-11-15T12:41:59.348Z,2.50
2023-11-15T12:44:27.874Z,2.20
2023-11-15T12:46:59.350Z,2.47
2023-11-15T12:49:28.989Z,3.07
2023-11-15T12:51:57.456Z,3.60
2023-11-15T12:54:25.904Z,3.10
2023-11-15T12:57:08.842Z,3.23
2023-11-15T12:59:39.029Z,3.27
2023-11-15T13:02:08.125Z,2.97
2023-11-15T13:04:47.886Z,2.40
2023-11-15T13:07:16.787Z,2.50
2023-11-15T13:09:45.461Z,3.57
2023-11-15T13:12:26.978Z,2.57
2023-11-15T13:14:56.538Z,2.63
2023-11-15T13:17:28.248Z,2.97
2023-11-15T13:20:00.608Z,2.87
2023-11-15T13:22:31.240Z,3.20
2023-11-15T13:24:59.623Z,2.57
2023-11-15T13:27:29.440Z,3.40
2023-11-15T13:29:58.198Z,3.13
2023-11-15T13:32:26.720Z,3.17
2023-11-15T13:34:55.475Z,2.70
2023-11-15T13:37:25.547Z,3.67
2023-11-15T13:39:53.803Z,3.40
2023-11-15T13:42:22.377Z,3.47
2023-11-15T13:44:52.182Z,2.97
2023-11-15T13:47:20.530Z,4.10
2023-11-15T13:49:49.113Z,3.90
2023-11-15T13:52:17.762Z,3.73
2023-11-15T13:54:47.609Z,3.70
2023-11-15T13:57:18.818Z,3.00
2023-11-15T13:59:48.204Z,2.47
2023-11-15T14:02:18.388Z,4.27
2023-11-15T14:04:46.709Z,3.50
2023-11-15T14:07:17.172Z,3.77
2023-11-15T14:09:46.818Z,4.13
2023-11-15T14:12:15.743Z,2.93
2023-11-15T14:14:45.442Z,3.63
2023-11-15T14:17:14.100Z,3.00
2023-11-15T14:19:43.926Z,3.63
2023-11-15T14:22:13.159Z,3.27
2023-11-15T14:24:41.730Z,3.20
2023-11-15T14:27:12.832Z,2.60
2023-11-15T14:29:42.888Z,3.67
2023-11-15T14:32:17.268Z,3.60
2023-11-15T14:34:47.190Z,3.30
2023-11-15T14:37:16.218Z,3.40
2023-11-15T14:39:44.591Z,3.60
2023-11-15T14:42:13.314Z,4.10
2023-11-15T14:44:42.311Z,3.97
2023-11-15T14:47:10.953Z,3.73
2023-11-15T14:49:39.366Z,3.60
2023-11-15T14:52:12.028Z,4.07
2023-11-15T14:54:47.141Z,3.50
2023-11-15T14:57:16.512Z,3.20
2023-11-15T14:59:47.853Z,3.63
2023-11-15T15:02:18.609Z,3.70
2023-11-15T15:04:49.293Z,3.77
2023-11-15T15:07:20.310Z,4.10
2023-11-15T15:09:48.755Z,3.70
2023-11-15T15:12:18.981Z,3.30
2023-11-15T15:14:47.979Z,4.07
2023-11-15T15:17:23.678Z,2.83
2023-11-15T15:19:55.416Z,3.53
2023-11-15T15:22:26.815Z,3.40
2023-11-15T15:24:55.426Z,2.90
2023-11-15T15:27:23.959Z,4.00
2023-11-15T15:29:52.475Z,2.83
2023-11-15T15:32:20.801Z,3.50
2023-11-15T15:34:49.118Z,3.10
2023-11-15T15:37:17.427Z,3.80
2023-11-15T15:39:47.145Z,3.43
2023-11-15T15:42:15.470Z,3.20
2023-11-15T15:44:43.796Z,3.63
2023-11-15T15:47:12.128Z,3.83
2023-11-15T15:49:46.348Z,4.17
2023-11-15T15:52:15.744Z,3.77
2023-11-15T15:54:44.738Z,4.10
2023-11-15T15:57:15.112Z,3.40
2023-11-15T15:59:43.695Z,3.50
2023-11-15T16:02:12.310Z,3.77
2023-11-15T16:04:42.800Z,3.10
2023-11-15T16:07:11.771Z,4.40
2023-11-15T16:09:42.727Z,3.83
2023-11-15T16:12:11.612Z,3.30
2023-11-15T16:14:41.428Z,4.90
2023-11-15T16:17:09.848Z,3.30
2023-11-15T16:19:38.224Z,3.60
2023-11-15T16:22:06.579Z,3.43
2023-11-15T16:24:34.928Z,5.13
2023-11-15T16:27:04.584Z,3.60
2023-11-15T16:29:34.294Z,4.37
2023-11-15T16:32:04.270Z,3.30
2023-11-15T16:34:33.072Z,3.90
2023-11-15T16:37:01.808Z,5.43
2023-11-15T16:39:30.076Z,3.40
2023-11-15T16:42:00.366Z,3.00
2023-11-15T16:44:30.901Z,3.47
2023-11-15T16:47:00.593Z,2.63
2023-11-15T16:49:30.427Z,2.93
2023-11-15T16:52:00.801Z,2.93
2023-11-15T16:54:31.283Z,3.77
2023-11-15T16:57:01.331Z,3.27
2023-11-15T16:59:29.691Z,2.90
2023-11-15T17:01:58.097Z,3.63
2023-11-15T17:04:26.520Z,2.97
2023-11-15T17:06:57.455Z,3.73
2023-11-15T17:09:26.054Z,3.63
2023-11-15T17:11:54.471Z,2.90
2023-11-15T17:14:23.191Z,3.10
2023-11-15T17:16:51.625Z,3.10
2023-11-15T17:19:21.026Z,2.67
2023-11-15T17:21:49.415Z,3.07
2023-11-15T17:24:20.192Z,3.10
2023-11-15T17:26:49.033Z,3.37
2023-11-15T17:29:17.424Z,2.27
2023-11-15T17:31:46.032Z,3.87
2023-11-15T17:34:15.394Z,3.90
2023-11-15T17:36:44.804Z,3.53
2023-11-15T17:39:15.657Z,3.20
2023-11-15T17:41:45.478Z,3.87
2023-11-15T17:44:16.056Z,3.43
2023-11-15T17:46:44.707Z,3.60
2023-11-15T17:49:13.986Z,3.07
2023-11-15T17:51:45.336Z,3.70
2023-11-15T17:54:15.600Z,3.23
2023-11-15T17:56:46.449Z,3.30
2023-11-15T17:59:15.171Z,4.20
2023-11-15T18:01:44.125Z,3.53
2023-11-15T18:04:16.310Z,3.40
2023-11-15T18:06:45.309Z,5.27
2023-11-15T18:09:13.882Z,4.23
2023-11-15T18:11:42.586Z,3.47
2023-11-15T18:14:12.633Z,3.40
2023-11-15T18:16:40.990Z,4.07
2023-11-15T18:19:10.109Z,3.77
2023-11-15T18:21:41.540Z,3.40
2023-11-15T18:24:12.613Z,4.03
2023-11-15T18:26:43.229Z,3.10
2023-11-15T18:29:13.051Z,3.90
2023-11-15T18:31:41.639Z,3.10
2023-11-15T18:34:10.763Z,3.90
2023-11-15T18:36:42.569Z,4.43
2023-11-15T18:39:15.799Z,3.80
2023-11-15T18:41:45.639Z,4.50
2023-11-15T18:44:17.496Z,4.37
2023-11-15T18:46:53.509Z,4.23
2023-11-15T18:49:24.178Z,4.57
2023-11-15T18:51:53.929Z,3.93
2023-11-15T18:54:23.287Z,3.83
2023-11-15T18:56:53.301Z,3.53
2023-11-15T18:59:23.475Z,4.00
2023-11-15T19:01:51.848Z,3.73
2023-11-15T19:04:20.535Z,5.30
2023-11-15T19:06:50.804Z,5.00
2023-11-15T19:09:23.323Z,6.70
2023-11-15T19:11:56.574Z,5.50
2023-11-15T19:14:29.775Z,4.83
2023-11-15T19:17:01.205Z,6.20
2023-11-15T19:19:29.907Z,5.73
2023-11-15T19:21:58.393Z,3.80
2023-11-15T19:24:26.945Z,3.60
2023-11-15T19:26:55.490Z,4.40
2023-11-15T19:29:23.985Z,3.93
2023-11-15T19:31:53.976Z,3.67
2023-11-15T19:34:24.385Z,3.70
2023-11-15T19:36:53.783Z,3.73
2023-11-15T19:39:22.226Z,3.90
2023-11-15T19:41:51.820Z,3.00
2023-11-15T19:44:20.197Z,3.67
2023-11-15T19:46:48.864Z,3.87
2023-11-15T19:49:20.766Z,2.80
2023-11-15T19:51:53.008Z,3.10
2023-11-15T19:54:22.086Z,2.87
2023-11-15T19:56:51.174Z,3.47
2023-11-15T19:59:19.618Z,3.17
2023-11-15T20:01:48.298Z,4.00
2023-11-15T20:04:20.570Z,3.20
2023-11-15T20:06:49.428Z,3.30
2023-11-15T20:09:17.776Z,3.53
2023-11-15T20:11:47.927Z,2.97
2023-11-15T20:14:16.451Z,3.00
2023-11-15T20:16:44.828Z,3.50
2023-11-15T20:19:14.148Z,3.27
2023-11-15T20:21:43.920Z,3.83
2023-11-15T20:24:12.441Z,2.80
2023-11-15T20:26:42.181Z,3.47
2023-11-15T20:29:11.683Z,3.73
2023-11-15T20:31:40.222Z,3.90
2023-11-15T20:34:09.100Z,2.83
2023-11-15T20:36:38.691Z,2.73
2023-11-15T20:39:21.609Z,2.60
2023-11-15T20:41:53.674Z,3.40
2023-11-15T20:44:22.343Z,3.43
2023-11-15T20:46:50.905Z,3.27
2023-11-15T20:49:19.412Z,2.80
2023-11-15T20:51:49.099Z,3.10
2023-11-15T20:54:22.106Z,3.70
2023-11-15T20:56:50.570Z,2.80
2023-11-15T20:59:19.322Z,3.47
2023-11-15T21:01:48.352Z,3.40
2023-11-15T21:04:21.153Z,2.73
2023-11-15T21:06:52.017Z,3.20
2023-11-15T21:09:24.827Z,3.40
2023-11-15T21:11:54.821Z,3.67
2023-11-15T21:14:23.338Z,4.13
2023-11-15T21:16:51.842Z,3.27
2023-11-15T21:19:20.477Z,3.43
2023-11-15T21:21:47.837Z,3.97
2023-11-15T21:24:16.513Z,4.17
2023-11-15T21:26:46.809Z,2.80
2023-11-15T21:29:15.235Z,3.07
2023-11-15T21:31:43.961Z,3.37
2023-11-15T21:34:12.491Z,3.90
2023-11-15T21:36:41.288Z,3.10
2023-11-15T21:39:10.742Z,4.00
2023-11-15T21:41:39.442Z,2.83
2023-11-15T21:44:09.536Z,3.17
2023-11-15T21:46:38.290Z,3.63
2023-11-15T21:49:06.920Z,2.57
2023-11-15T21:51:35.233Z,3.50
2023-11-15T21:54:03.832Z,3.30
2023-11-15T21:56:33.115Z,3.37
2023-11-15T21:59:01.490Z,3.00
2023-11-15T22:01:31.331Z,3.20
2023-11-15T22:03:59.716Z,2.83
2023-11-15T22:06:28.189Z,3.60
2023-11-15T22:08:56.563Z,2.90
2023-11-15T22:11:25.000Z,3.40
2023-11-15T22:13:53.394Z,3.93
2023-11-15T22:16:21.973Z,4.00
2023-11-15T22:18:51.724Z,4.50
2023-11-15T22:21:20.149Z,3.30
2023-11-15T22:23:50.989Z,4.43
2023-11-15T22:26:19.305Z,3.20
2023-11-15T22:28:47.810Z,3.83
2023-11-15T22:31:16.238Z,3.20
2023-11-15T22:33:44.639Z,3.73
2023-11-15T22:36:16.288Z,3.27
2023-11-15T22:38:45.456Z,3.60
2023-11-15T22:41:13.870Z,2.90
2023-11-15T22:43:42.438Z,2.93
2023-11-15T22:46:10.894Z,3.27
2023-11-15T22:48:39.321Z,4.20
2023-11-15T22:51:08.788Z,3.60
2023-11-15T22:53:39.855Z,3.50
2023-11-15T22:56:10.155Z,3.63
2023-11-15T22:58:38.532Z,4.27
2023-11-15T23:01:07.212Z,3.47
2023-11-15T23:03:35.997Z,4.37
2023-11-15T23:06:06.968Z,3.63
2023-11-15T23:08:35.319Z,3.20
2023-11-15T23:11:05.532Z,3.73
2023-11-15T23:13:33.946Z,3.73
2023-11-15T23:16:02.263Z,3.33
2023-11-15T23:18:30.778Z,3.40
2023-11-15T23:20:59.893Z,4.30
2023-11-15T23:23:28.329Z,3.77
2023-11-15T23:25:56.917Z,3.50
2023-11-15T23:28:27.997Z,3.83
2023-11-15T23:30:56.979Z,4.63
2023-11-15T23:33:25.604Z,4.00
2023-11-15T23:35:54.436Z,3.40
2023-11-15T23:38:25.885Z,3.70
2023-11-15T23:40:54.956Z,4.20
2023-11-15T23:43:23.277Z,4.00
2023-11-15T23:45:53.371Z,2.70
2023-11-15T23:48:22.167Z,3.20
2023-11-15T23:50:50.863Z,3.13
2023-11-15T23:53:19.274Z,3.70
2023-11-15T23:55:47.724Z,3.00
2023-11-15T23:58:17.278Z,2.83
